sensor_id;sensor_type;location;lat;lon;timestamp;temperature;humidity
25468;DHT22;13384;24.794;110.498;2022-10-19T00:02:13;21.40;81.90
25468;DHT22;13384;24.794;110.498;2022-10-19T00:05:07;21.40;81.90
25468;DHT22;13384;24.794;110.498;2022-10-19T00:07:50;21.50;82.20
25468;DHT22;13384;24.794;110.498;2022-10-19T00:10:42;21.50;81.70
25468;DHT22;13384;24.794;110.498;2022-10-19T00:13:31;21.50;82.00
25468;DHT22;13384;24.794;110.498;2022-10-19T00:16:00;21.50;82.30
25468;DHT22;13384;24.794;110.498;2022-10-19T00:18:29;21.50;78.60
25468;DHT22;13384;24.794;110.498;2022-10-19T00:21:08;21.50;79.90
25468;DHT22;13384;24.794;110.498;2022-10-19T00:24:04;21.50;80.50
25468;DHT22;13384;24.794;110.498;2022-10-19T00:26:58;21.40;79.80
25468;DHT22;13384;24.794;110.498;2022-10-19T00:29:47;21.50;79.70
25468;DHT22;13384;24.794;110.498;2022-10-19T00:32:27;21.40;74.40
25468;DHT22;13384;24.794;110.498;2022-10-19T00:34:59;21.30;76.70
25468;DHT22;13384;24.794;110.498;2022-10-19T00:37:32;21.30;75.50
25468;DHT22;13384;24.794;110.498;2022-10-19T00:40:23;21.20;77.40
25468;DHT22;13384;24.794;110.498;2022-10-19T00:43:56;21.20;76.90
25468;DHT22;13384;24.794;110.498;2022-10-19T00:46:30;21.30;80.00
25468;DHT22;13384;24.794;110.498;2022-10-19T00:49:31;21.40;80.70
25468;DHT22;13384;24.794;110.498;2022-10-19T00:52:27;21.30;76.00
25468;DHT22;13384;24.794;110.498;2022-10-19T00:55:20;21.40;79.90
25468;DHT22;13384;24.794;110.498;2022-10-19T00:58:27;21.50;80.30
25468;DHT22;13384;24.794;110.498;2022-10-19T01:00:58;21.60;80.30
25468;DHT22;13384;24.794;110.498;2022-10-19T01:03:29;21.60;78.80
25468;DHT22;13384;24.794;110.498;2022-10-19T01:05:58;21.60;78.80
25468;DHT22;13384;24.794;110.498;2022-10-19T01:08:28;21.60;78.40
25468;DHT22;13384;24.794;110.498;2022-10-19T01:23:11;21.60;79.20
25468;DHT22;13384;24.794;110.498;2022-10-19T01:41:09;21.60;80.10
25468;DHT22;13384;24.794;110.498;2022-10-19T01:46:30;21.60;78.80
25468;DHT22;13384;24.794;110.498;2022-10-19T01:49:25;21.70;80.40
25468;DHT22;13384;24.794;110.498;2022-10-19T01:52:03;21.70;75.40
25468;DHT22;13384;24.794;110.498;2022-10-19T01:54:39;21.70;77.20
25468;DHT22;13384;24.794;110.498;2022-10-19T01:57:14;21.70;76.60
25468;DHT22;13384;24.794;110.498;2022-10-19T01:59:48;21.70;79.10
25468;DHT22;13384;24.794;110.498;2022-10-19T02:02:20;21.70;80.20
25468;DHT22;13384;24.794;110.498;2022-10-19T02:04:53;21.70;78.90
25468;DHT22;13384;24.794;110.498;2022-10-19T02:07:27;21.70;74.90
25468;DHT22;13384;24.794;110.498;2022-10-19T02:09:58;21.70;72.60
25468;DHT22;13384;24.794;110.498;2022-10-19T02:12:31;21.70;77.10
25468;DHT22;13384;24.794;110.498;2022-10-19T02:15:10;21.70;77.90
25468;DHT22;13384;24.794;110.498;2022-10-19T02:17:49;21.70;77.00
25468;DHT22;13384;24.794;110.498;2022-10-19T02:20:22;21.80;73.90
25468;DHT22;13384;24.794;110.498;2022-10-19T02:22:53;21.80;72.80
25468;DHT22;13384;24.794;110.498;2022-10-19T02:25:25;21.80;75.30
25468;DHT22;13384;24.794;110.498;2022-10-19T02:27:56;21.80;77.30
25468;DHT22;13384;24.794;110.498;2022-10-19T02:30:28;21.80;74.30
25468;DHT22;13384;24.794;110.498;2022-10-19T02:33:03;21.80;75.20
25468;DHT22;13384;24.794;110.498;2022-10-19T02:35:34;21.80;78.80
25468;DHT22;13384;24.794;110.498;2022-10-19T02:38:07;21.80;68.80
25468;DHT22;13384;24.794;110.498;2022-10-19T02:40:44;21.80;72.70
25468;DHT22;13384;24.794;110.498;2022-10-19T02:43:18;21.80;69.20
25468;DHT22;13384;24.794;110.498;2022-10-19T02:46:01;21.80;76.40
25468;DHT22;13384;24.794;110.498;2022-10-19T02:48:34;21.80;72.80
25468;DHT22;13384;24.794;110.498;2022-10-19T02:51:25;21.80;71.20
25468;DHT22;13384;24.794;110.498;2022-10-19T02:53:56;21.80;68.60
25468;DHT22;13384;24.794;110.498;2022-10-19T02:56:33;21.80;68.40
25468;DHT22;13384;24.794;110.498;2022-10-19T02:59:04;21.80;74.90
25468;DHT22;13384;24.794;110.498;2022-10-19T03:01:35;21.80;73.40
25468;DHT22;13384;24.794;110.498;2022-10-19T03:04:06;21.80;74.10
25468;DHT22;13384;24.794;110.498;2022-10-19T03:06:37;21.90;77.00
25468;DHT22;13384;24.794;110.498;2022-10-19T03:09:09;21.80;72.80
25468;DHT22;13384;24.794;110.498;2022-10-19T03:11:43;21.80;68.80
25468;DHT22;13384;24.794;110.498;2022-10-19T03:14:14;21.80;71.20
25468;DHT22;13384;24.794;110.498;2022-10-19T03:16:45;21.80;76.80
25468;DHT22;13384;24.794;110.498;2022-10-19T03:19:29;21.80;76.80
25468;DHT22;13384;24.794;110.498;2022-10-19T03:22:00;21.80;73.10
25468;DHT22;13384;24.794;110.498;2022-10-19T03:24:31;21.80;68.00
25468;DHT22;13384;24.794;110.498;2022-10-19T03:27:03;21.90;76.00
25468;DHT22;13384;24.794;110.498;2022-10-19T03:29:34;21.90;73.40
25468;DHT22;13384;24.794;110.498;2022-10-19T03:32:06;21.90;77.30
25468;DHT22;13384;24.794;110.498;2022-10-19T03:34:57;21.90;77.70
25468;DHT22;13384;24.794;110.498;2022-10-19T03:37:28;21.80;67.00
25468;DHT22;13384;24.794;110.498;2022-10-19T03:39:59;21.90;68.00
25468;DHT22;13384;24.794;110.498;2022-10-19T03:42:30;21.90;76.00
25468;DHT22;13384;24.794;110.498;2022-10-19T03:45:02;21.90;75.60
25468;DHT22;13384;24.794;110.498;2022-10-19T03:47:33;21.90;75.50
25468;DHT22;13384;24.794;110.498;2022-10-19T03:50:05;21.90;77.40
25468;DHT22;13384;24.794;110.498;2022-10-19T03:52:36;21.90;76.90
25468;DHT22;13384;24.794;110.498;2022-10-19T03:55:08;21.90;77.20
25468;DHT22;13384;24.794;110.498;2022-10-19T03:57:39;21.90;77.20
25468;DHT22;13384;24.794;110.498;2022-10-19T04:00:11;21.90;75.70
25468;DHT22;13384;24.794;110.498;2022-10-19T04:02:41;21.90;75.30
25468;DHT22;13384;24.794;110.498;2022-10-19T04:05:12;21.90;75.60
25468;DHT22;13384;24.794;110.498;2022-10-19T04:07:44;21.90;75.70
25468;DHT22;13384;24.794;110.498;2022-10-19T04:10:15;21.90;74.50
25468;DHT22;13384;24.794;110.498;2022-10-19T04:12:46;21.90;75.10
25468;DHT22;13384;24.794;110.498;2022-10-19T04:15:30;21.90;75.90
25468;DHT22;13384;24.794;110.498;2022-10-19T04:18:01;21.90;76.20
25468;DHT22;13384;24.794;110.498;2022-10-19T04:20:32;22.00;76.30
25468;DHT22;13384;24.794;110.498;2022-10-19T04:23:03;21.90;76.20
25468;DHT22;13384;24.794;110.498;2022-10-19T04:25:36;21.90;77.00
25468;DHT22;13384;24.794;110.498;2022-10-19T04:28:27;22.00;76.70
25468;DHT22;13384;24.794;110.498;2022-10-19T04:31:02;22.00;75.60
25468;DHT22;13384;24.794;110.498;2022-10-19T04:33:34;22.00;76.30
25468;DHT22;13384;24.794;110.498;2022-10-19T04:36:07;22.00;74.90
25468;DHT22;13384;24.794;110.498;2022-10-19T04:38:38;22.00;76.80
25468;DHT22;13384;24.794;110.498;2022-10-19T04:41:12;22.00;76.10
25468;DHT22;13384;24.794;110.498;2022-10-19T04:43:44;22.00;75.90
25468;DHT22;13384;24.794;110.498;2022-10-19T04:46:17;22.00;77.50
25468;DHT22;13384;24.794;110.498;2022-10-19T04:48:49;22.00;78.30
25468;DHT22;13384;24.794;110.498;2022-10-19T04:51:21;22.00;78.50
25468;DHT22;13384;24.794;110.498;2022-10-19T04:53:53;22.00;79.00
25468;DHT22;13384;24.794;110.498;2022-10-19T04:56:27;22.00;79.10
25468;DHT22;13384;24.794;110.498;2022-10-19T04:59:00;22.00;79.40
25468;DHT22;13384;24.794;110.498;2022-10-19T05:01:32;22.00;79.50
25468;DHT22;13384;24.794;110.498;2022-10-19T05:04:03;22.00;79.50
25468;DHT22;13384;24.794;110.498;2022-10-19T05:06:57;22.00;79.50
25468;DHT22;13384;24.794;110.498;2022-10-19T05:09:28;22.00;79.70
25468;DHT22;13384;24.794;110.498;2022-10-19T05:11:59;22.00;79.80
25468;DHT22;13384;24.794;110.498;2022-10-19T05:14:50;22.00;79.70
25468;DHT22;13384;24.794;110.498;2022-10-19T05:17:34;22.00;79.90
25468;DHT22;13384;24.794;110.498;2022-10-19T05:20:05;22.00;80.20
25468;DHT22;13384;24.794;110.498;2022-10-19T05:22:37;22.00;80.20
25468;DHT22;13384;24.794;110.498;2022-10-19T05:25:09;22.00;80.20
25468;DHT22;13384;24.794;110.498;2022-10-19T05:27:52;22.00;80.20
25468;DHT22;13384;24.794;110.498;2022-10-19T05:30:23;22.00;80.30
25468;DHT22;13384;24.794;110.498;2022-10-19T05:32:54;22.00;80.30
25468;DHT22;13384;24.794;110.498;2022-10-19T05:35:26;22.00;80.30
25468;DHT22;13384;24.794;110.498;2022-10-19T05:37:57;22.00;80.50
25468;DHT22;13384;24.794;110.498;2022-10-19T05:40:28;22.00;80.40
25468;DHT22;13384;24.794;110.498;2022-10-19T05:43:01;22.00;80.60
25468;DHT22;13384;24.794;110.498;2022-10-19T05:45:32;22.00;80.60
25468;DHT22;13384;24.794;110.498;2022-10-19T05:48:03;22.00;80.50
25468;DHT22;13384;24.794;110.498;2022-10-19T05:50:35;22.00;80.40
25468;DHT22;13384;24.794;110.498;2022-10-19T05:53:06;22.00;80.20
25468;DHT22;13384;24.794;110.498;2022-10-19T05:55:37;22.00;79.60
25468;DHT22;13384;24.794;110.498;2022-10-19T05:58:10;22.00;80.30
25468;DHT22;13384;24.794;110.498;2022-10-19T06:00:41;22.00;79.10
25468;DHT22;13384;24.794;110.498;2022-10-19T06:03:31;22.00;79.70
25468;DHT22;13384;24.794;110.498;2022-10-19T06:06:04;22.00;80.30
25468;DHT22;13384;24.794;110.498;2022-10-19T06:08:37;22.00;80.40
25468;DHT22;13384;24.794;110.498;2022-10-19T06:11:16;22.00;80.40
25468;DHT22;13384;24.794;110.498;2022-10-19T06:13:49;22.10;80.40
25468;DHT22;13384;24.794;110.498;2022-10-19T06:16:21;22.00;80.30
25468;DHT22;13384;24.794;110.498;2022-10-19T06:18:54;22.10;80.40
25468;DHT22;13384;24.794;110.498;2022-10-19T06:21:28;22.10;80.30
25468;DHT22;13384;24.794;110.498;2022-10-19T06:24:03;22.10;80.30
25468;DHT22;13384;24.794;110.498;2022-10-19T06:26:40;22.10;80.30
25468;DHT22;13384;24.794;110.498;2022-10-19T06:29:11;22.00;81.10
25468;DHT22;13384;24.794;110.498;2022-10-19T06:31:43;22.00;80.40
25468;DHT22;13384;24.794;110.498;2022-10-19T06:34:37;22.10;80.60
25468;DHT22;13384;24.794;110.498;2022-10-19T06:37:08;22.10;80.60
25468;DHT22;13384;24.794;110.498;2022-10-19T06:39:39;22.10;80.60
25468;DHT22;13384;24.794;110.498;2022-10-19T06:42:10;22.10;80.40
25468;DHT22;13384;24.794;110.498;2022-10-19T06:44:41;22.10;80.40
25468;DHT22;13384;24.794;110.498;2022-10-19T06:47:13;22.10;80.50
25468;DHT22;13384;24.794;110.498;2022-10-19T06:49:43;22.10;77.60
25468;DHT22;13384;24.794;110.498;2022-10-19T06:52:34;22.10;80.10
25468;DHT22;13384;24.794;110.498;2022-10-19T06:55:06;22.10;72.40
25468;DHT22;13384;24.794;110.498;2022-10-19T06:57:37;22.10;80.00
25468;DHT22;13384;24.794;110.498;2022-10-19T07:00:09;22.10;80.20
25468;DHT22;13384;24.794;110.498;2022-10-19T07:03:00;22.10;80.20
25468;DHT22;13384;24.794;110.498;2022-10-19T07:05:31;22.10;80.10
25468;DHT22;13384;24.794;110.498;2022-10-19T07:08:03;22.10;80.00
25468;DHT22;13384;24.794;110.498;2022-10-19T07:10:35;22.10;79.90
25468;DHT22;13384;24.794;110.498;2022-10-19T07:13:07;22.10;80.00
25468;DHT22;13384;24.794;110.498;2022-10-19T07:15:39;22.10;80.20
25468;DHT22;13384;24.794;110.498;2022-10-19T07:18:10;22.10;80.10
25468;DHT22;13384;24.794;110.498;2022-10-19T07:20:41;22.10;80.00
25468;DHT22;13384;24.794;110.498;2022-10-19T07:23:12;22.10;79.90
25468;DHT22;13384;24.794;110.498;2022-10-19T07:25:43;22.10;80.10
25468;DHT22;13384;24.794;110.498;2022-10-19T07:28:14;22.10;80.10
25468;DHT22;13384;24.794;110.498;2022-10-19T07:30:45;22.10;80.10
25468;DHT22;13384;24.794;110.498;2022-10-19T07:33:36;22.10;80.20
25468;DHT22;13384;24.794;110.498;2022-10-19T07:36:08;22.10;80.20
25468;DHT22;13384;24.794;110.498;2022-10-19T07:38:40;22.10;80.20
25468;DHT22;13384;24.794;110.498;2022-10-19T07:41:14;22.10;80.30
25468;DHT22;13384;24.794;110.498;2022-10-19T07:43:46;22.10;80.40
25468;DHT22;13384;24.794;110.498;2022-10-19T07:46:24;22.10;80.30
25468;DHT22;13384;24.794;110.498;2022-10-19T07:48:55;22.10;77.70
25468;DHT22;13384;24.794;110.498;2022-10-19T07:51:26;22.10;80.40
25468;DHT22;13384;24.794;110.498;2022-10-19T07:54:02;22.10;80.40
25468;DHT22;13384;24.794;110.498;2022-10-19T07:56:34;22.10;80.50
25468;DHT22;13384;24.794;110.498;2022-10-19T07:59:05;22.20;80.50
25468;DHT22;13384;24.794;110.498;2022-10-19T08:01:56;22.10;80.30
25468;DHT22;13384;24.794;110.498;2022-10-19T08:04:29;22.10;80.40
25468;DHT22;13384;24.794;110.498;2022-10-19T08:07:20;22.10;80.40
25468;DHT22;13384;24.794;110.498;2022-10-19T08:09:51;22.10;80.40
25468;DHT22;13384;24.794;110.498;2022-10-19T08:12:22;22.10;80.50
25468;DHT22;13384;24.794;110.498;2022-10-19T08:14:53;22.10;80.60
25468;DHT22;13384;24.794;110.498;2022-10-19T08:17:25;22.10;80.60
25468;DHT22;13384;24.794;110.498;2022-10-19T08:19:58;22.10;80.60
25468;DHT22;13384;24.794;110.498;2022-10-19T08:22:49;22.10;80.80
25468;DHT22;13384;24.794;110.498;2022-10-19T08:25:26;22.10;80.70
25468;DHT22;13384;24.794;110.498;2022-10-19T08:27:59;22.20;80.80
25468;DHT22;13384;24.794;110.498;2022-10-19T08:30:30;22.10;80.80
25468;DHT22;13384;24.794;110.498;2022-10-19T08:33:02;22.10;80.80
25468;DHT22;13384;24.794;110.498;2022-10-19T08:35:35;22.20;81.00
25468;DHT22;13384;24.794;110.498;2022-10-19T08:38:07;22.10;80.90
25468;DHT22;13384;24.794;110.498;2022-10-19T08:40:38;22.10;81.00
25468;DHT22;13384;24.794;110.498;2022-10-19T08:43:33;22.10;81.00
25468;DHT22;13384;24.794;110.498;2022-10-19T08:46:24;22.20;81.90
25468;DHT22;13384;24.794;110.498;2022-10-19T08:49:00;22.10;81.00
25468;DHT22;13384;24.794;110.498;2022-10-19T08:51:53;22.10;81.00
25468;DHT22;13384;24.794;110.498;2022-10-19T08:54:42;22.10;81.00
25468;DHT22;13384;24.794;110.498;2022-10-19T08:57:38;22.10;81.10
25468;DHT22;13384;24.794;110.498;2022-10-19T09:08:52;22.10;81.30
25468;DHT22;13384;24.794;110.498;2022-10-19T09:11:31;22.10;81.30
25468;DHT22;13384;24.794;110.498;2022-10-19T09:14:17;22.10;81.30
25468;DHT22;13384;24.794;110.498;2022-10-19T09:16:49;22.20;81.40
25468;DHT22;13384;24.794;110.498;2022-10-19T09:19:25;22.20;81.40
25468;DHT22;13384;24.794;110.498;2022-10-19T09:22:22;22.10;81.40
25468;DHT22;13384;24.794;110.498;2022-10-19T09:24:59;22.10;81.50
25468;DHT22;13384;24.794;110.498;2022-10-19T09:27:37;22.10;81.50
25468;DHT22;13384;24.794;110.498;2022-10-19T09:30:20;22.10;81.60
25468;DHT22;13384;24.794;110.498;2022-10-19T09:32:59;22.10;81.60
25468;DHT22;13384;24.794;110.498;2022-10-19T09:35:42;22.10;82.40
25468;DHT22;13384;24.794;110.498;2022-10-19T09:38:26;22.10;81.70
25468;DHT22;13384;24.794;110.498;2022-10-19T09:41:06;22.10;81.80
25468;DHT22;13384;24.794;110.498;2022-10-19T09:43:53;22.10;81.80
25468;DHT22;13384;24.794;110.498;2022-10-19T09:49:42;22.10;81.90
25468;DHT22;13384;24.794;110.498;2022-10-19T09:52:23;22.10;82.00
25468;DHT22;13384;24.794;110.498;2022-10-19T10:00:55;22.10;82.10
25468;DHT22;13384;24.794;110.498;2022-10-19T10:03:33;22.10;82.20
25468;DHT22;13384;24.794;110.498;2022-10-19T10:06:17;22.10;82.30
25468;DHT22;13384;24.794;110.498;2022-10-19T10:08:51;22.10;82.30
25468;DHT22;13384;24.794;110.498;2022-10-19T10:11:34;22.10;82.30
25468;DHT22;13384;24.794;110.498;2022-10-19T10:17:03;22.10;82.40
25468;DHT22;13384;24.794;110.498;2022-10-19T10:19:36;22.10;82.50
25468;DHT22;13384;24.794;110.498;2022-10-19T10:22:36;22.10;82.50
25468;DHT22;13384;24.794;110.498;2022-10-19T10:25:15;22.10;82.60
25468;DHT22;13384;24.794;110.498;2022-10-19T10:27:59;22.10;82.60
25468;DHT22;13384;24.794;110.498;2022-10-19T10:30:34;22.10;82.70
25468;DHT22;13384;24.794;110.498;2022-10-19T10:33:06;22.10;82.70
25468;DHT22;13384;24.794;110.498;2022-10-19T10:36:00;22.10;82.70
25468;DHT22;13384;24.794;110.498;2022-10-19T10:38:52;22.10;82.70
25468;DHT22;13384;24.794;110.498;2022-10-19T10:41:28;22.10;82.80
25468;DHT22;13384;24.794;110.498;2022-10-19T10:44:04;22.10;82.90
25468;DHT22;13384;24.794;110.498;2022-10-19T10:47:02;22.10;82.90
25468;DHT22;13384;24.794;110.498;2022-10-19T10:49:40;22.10;82.90
25468;DHT22;13384;24.794;110.498;2022-10-19T10:52:15;22.10;82.90
25468;DHT22;13384;24.794;110.498;2022-10-19T10:57:53;22.10;83.00
25468;DHT22;13384;24.794;110.498;2022-10-19T11:00:29;22.10;83.10
25468;DHT22;13384;24.794;110.498;2022-10-19T11:03:20;22.10;82.90
25468;DHT22;13384;24.794;110.498;2022-10-19T11:05:56;22.10;82.50
25468;DHT22;13384;24.794;110.498;2022-10-19T11:11:41;22.10;83.00
25468;DHT22;13384;24.794;110.498;2022-10-19T11:17:09;22.10;81.80
25468;DHT22;13384;24.794;110.498;2022-10-19T11:19:43;22.10;79.70
25468;DHT22;13384;24.794;110.498;2022-10-19T11:22:28;22.10;82.50
25468;DHT22;13384;24.794;110.498;2022-10-19T11:28:03;22.10;83.10
25468;DHT22;13384;24.794;110.498;2022-10-19T11:34:02;22.10;82.40
25468;DHT22;13384;24.794;110.498;2022-10-19T11:36:50;22.10;82.00
25468;DHT22;13384;24.794;110.498;2022-10-19T11:39:47;22.10;81.50
25468;DHT22;13384;24.794;110.498;2022-10-19T11:45:35;22.10;82.00
25468;DHT22;13384;24.794;110.498;2022-10-19T11:48:55;22.10;82.40
25468;DHT22;13384;24.794;110.498;2022-10-19T11:51:45;22.10;82.50
25468;DHT22;13384;24.794;110.498;2022-10-19T11:57:37;22.10;82.30
25468;DHT22;13384;24.794;110.498;2022-10-19T12:00:30;22.10;83.30
25468;DHT22;13384;24.794;110.498;2022-10-19T12:17:56;22.10;83.50
25468;DHT22;13384;24.794;110.498;2022-10-19T12:20:36;22.10;82.50
25468;DHT22;13384;24.794;110.498;2022-10-19T12:26:04;22.10;83.20
25468;DHT22;13384;24.794;110.498;2022-10-19T12:28:42;22.10;83.40
25468;DHT22;13384;24.794;110.498;2022-10-19T12:31:19;22.10;83.00
25468;DHT22;13384;24.794;110.498;2022-10-19T12:37:27;22.10;83.40
25468;DHT22;13384;24.794;110.498;2022-10-19T12:46:20;22.10;83.60
25468;DHT22;13384;24.794;110.498;2022-10-19T12:48:32;22.00;83.60
25468;DHT22;13384;24.794;110.498;2022-10-19T12:51:08;22.00;83.60
25468;DHT22;13384;24.794;110.498;2022-10-19T12:53:46;22.00;83.60
25468;DHT22;13384;24.794;110.498;2022-10-19T12:56:23;22.00;83.70
25468;DHT22;13384;24.794;110.498;2022-10-19T12:58:59;22.10;83.60
25468;DHT22;13384;24.794;110.498;2022-10-19T13:04:18;22.00;83.70
25468;DHT22;13384;24.794;110.498;2022-10-19T13:06:58;22.00;84.50
25468;DHT22;13384;24.794;110.498;2022-10-19T13:09:39;22.00;83.50
25468;DHT22;13384;24.794;110.498;2022-10-19T13:14:56;22.00;83.60
25468;DHT22;13384;24.794;110.498;2022-10-19T13:25:41;22.00;83.60
25468;DHT22;13384;24.794;110.498;2022-10-19T13:39:00;22.00;84.00
25468;DHT22;13384;24.794;110.498;2022-10-19T13:47:01;22.00;83.90
25468;DHT22;13384;24.794;110.498;2022-10-19T13:52:42;22.00;83.70
25468;DHT22;13384;24.794;110.498;2022-10-19T13:55:33;22.00;83.60
25468;DHT22;13384;24.794;110.498;2022-10-19T13:58:39;22.00;83.60
25468;DHT22;13384;24.794;110.498;2022-10-19T14:01:31;22.00;83.50
25468;DHT22;13384;24.794;110.498;2022-10-19T14:06:52;22.00;84.00
25468;DHT22;13384;24.794;110.498;2022-10-19T14:12:25;22.00;83.90
25468;DHT22;13384;24.794;110.498;2022-10-19T14:15:32;22.00;83.70
25468;DHT22;13384;24.794;110.498;2022-10-19T14:18:30;22.00;84.10
25468;DHT22;13384;24.794;110.498;2022-10-19T14:21:04;22.00;84.20
25468;DHT22;13384;24.794;110.498;2022-10-19T14:23:38;22.00;84.30
25468;DHT22;13384;24.794;110.498;2022-10-19T14:28:41;22.00;84.40
25468;DHT22;13384;24.794;110.498;2022-10-19T14:31:19;22.00;84.30
25468;DHT22;13384;24.794;110.498;2022-10-19T14:33:54;22.00;84.40
25468;DHT22;13384;24.794;110.498;2022-10-19T14:36:37;22.00;84.40
25468;DHT22;13384;24.794;110.498;2022-10-19T14:39:22;22.00;84.40
25468;DHT22;13384;24.794;110.498;2022-10-19T14:42:13;22.00;84.60
25468;DHT22;13384;24.794;110.498;2022-10-19T14:44:44;22.00;84.60
25468;DHT22;13384;24.794;110.498;2022-10-19T14:53:41;22.00;84.50
25468;DHT22;13384;24.794;110.498;2022-10-19T15:01:53;22.00;84.70
25468;DHT22;13384;24.794;110.498;2022-10-19T15:04:31;22.00;84.60
25468;DHT22;13384;24.794;110.498;2022-10-19T15:07:15;22.00;84.70
25468;DHT22;13384;24.794;110.498;2022-10-19T15:10:14;22.00;84.80
25468;DHT22;13384;24.794;110.498;2022-10-19T15:12:48;22.00;84.80
25468;DHT22;13384;24.794;110.498;2022-10-19T15:15:27;22.00;84.70
25468;DHT22;13384;24.794;110.498;2022-10-19T15:18:03;22.00;84.90
25468;DHT22;13384;24.794;110.498;2022-10-19T15:20:37;22.00;84.80
25468;DHT22;13384;24.794;110.498;2022-10-19T15:23:54;22.00;84.60
25468;DHT22;13384;24.794;110.498;2022-10-19T15:26:36;22.00;84.40
25468;DHT22;13384;24.794;110.498;2022-10-19T15:29:26;21.90;84.70
25468;DHT22;13384;24.794;110.498;2022-10-19T15:32:17;22.00;84.80
25468;DHT22;13384;24.794;110.498;2022-10-19T15:34:50;22.00;84.40
25468;DHT22;13384;24.794;110.498;2022-10-19T15:37:23;22.00;84.80
25468;DHT22;13384;24.794;110.498;2022-10-19T15:40:30;21.90;84.20
25468;DHT22;13384;24.794;110.498;2022-10-19T15:51:48;22.00;84.80
25468;DHT22;13384;24.794;110.498;2022-10-19T15:54:20;21.90;84.80
25468;DHT22;13384;24.794;110.498;2022-10-19T15:56:53;22.00;84.30
25468;DHT22;13384;24.794;110.498;2022-10-19T15:59:26;22.00;85.00
25468;DHT22;13384;24.794;110.498;2022-10-19T16:01:57;22.00;84.90
25468;DHT22;13384;24.794;110.498;2022-10-19T16:04:29;21.90;85.00
25468;DHT22;13384;24.794;110.498;2022-10-19T16:07:01;22.00;85.00
25468;DHT22;13384;24.794;110.498;2022-10-19T16:09:32;22.00;84.90
25468;DHT22;13384;24.794;110.498;2022-10-19T16:12:08;22.00;85.10
25468;DHT22;13384;24.794;110.498;2022-10-19T16:14:40;21.90;84.60
25468;DHT22;13384;24.794;110.498;2022-10-19T16:17:15;21.90;84.90
25468;DHT22;13384;24.794;110.498;2022-10-19T16:19:46;21.90;85.00
25468;DHT22;13384;24.794;110.498;2022-10-19T16:22:18;21.90;85.10
25468;DHT22;13384;24.794;110.498;2022-10-19T16:24:49;21.90;85.00
25468;DHT22;13384;24.794;110.498;2022-10-19T16:27:20;22.00;85.10
25468;DHT22;13384;24.794;110.498;2022-10-19T16:29:52;22.00;84.80
25468;DHT22;13384;24.794;110.498;2022-10-19T16:32:24;22.00;85.10
25468;DHT22;13384;24.794;110.498;2022-10-19T16:34:55;21.90;85.00
25468;DHT22;13384;24.794;110.498;2022-10-19T16:37:27;21.90;84.80
25468;DHT22;13384;24.794;110.498;2022-10-19T16:39:58;21.90;85.00
25468;DHT22;13384;24.794;110.498;2022-10-19T16:42:29;22.00;84.30
25468;DHT22;13384;24.794;110.498;2022-10-19T16:45:01;21.90;85.00
25468;DHT22;13384;24.794;110.498;2022-10-19T16:47:33;21.90;85.00
25468;DHT22;13384;24.794;110.498;2022-10-19T16:50:09;21.90;84.90
25468;DHT22;13384;24.794;110.498;2022-10-19T16:52:42;21.90;85.20
25468;DHT22;13384;24.794;110.498;2022-10-19T16:55:33;22.00;84.30
25468;DHT22;13384;24.794;110.498;2022-10-19T16:58:23;21.90;85.30
25468;DHT22;13384;24.794;110.498;2022-10-19T17:00:55;21.90;85.20
25468;DHT22;13384;24.794;110.498;2022-10-19T17:03:30;21.90;85.00
25468;DHT22;13384;24.794;110.498;2022-10-19T17:06:05;21.90;85.30
25468;DHT22;13384;24.794;110.498;2022-10-19T17:08:36;21.90;85.10
25468;DHT22;13384;24.794;110.498;2022-10-19T17:11:35;21.90;84.70
25468;DHT22;13384;24.794;110.498;2022-10-19T17:14:09;21.90;85.20
25468;DHT22;13384;24.794;110.498;2022-10-19T17:16:41;21.90;85.30
25468;DHT22;13384;24.794;110.498;2022-10-19T17:19:12;21.90;85.30
25468;DHT22;13384;24.794;110.498;2022-10-19T17:21:44;21.90;85.20
25468;DHT22;13384;24.794;110.498;2022-10-19T17:24:18;21.90;85.30
25468;DHT22;13384;24.794;110.498;2022-10-19T17:26:51;21.90;85.30
25468;DHT22;13384;24.794;110.498;2022-10-19T17:29:22;21.90;85.10
25468;DHT22;13384;24.794;110.498;2022-10-19T17:31:53;21.90;84.90
25468;DHT22;13384;24.794;110.498;2022-10-19T17:34:24;21.90;85.40
25468;DHT22;13384;24.794;110.498;2022-10-19T17:36:56;21.90;85.10
25468;DHT22;13384;24.794;110.498;2022-10-19T17:39:27;21.90;84.60
25468;DHT22;13384;24.794;110.498;2022-10-19T17:41:58;21.90;85.30
25468;DHT22;13384;24.794;110.498;2022-10-19T17:44:49;21.90;85.30
25468;DHT22;13384;24.794;110.498;2022-10-19T17:47:20;21.90;85.30
25468;DHT22;13384;24.794;110.498;2022-10-19T17:49:52;21.90;85.00
25468;DHT22;13384;24.794;110.498;2022-10-19T17:52:23;21.90;85.30
25468;DHT22;13384;24.794;110.498;2022-10-19T17:54:54;21.90;85.30
25468;DHT22;13384;24.794;110.498;2022-10-19T17:57:41;21.90;85.30
25468;DHT22;13384;24.794;110.498;2022-10-19T18:00:13;21.90;85.40
25468;DHT22;13384;24.794;110.498;2022-10-19T18:02:44;21.90;84.90
25468;DHT22;13384;24.794;110.498;2022-10-19T18:05:17;21.90;85.20
25468;DHT22;13384;24.794;110.498;2022-10-19T18:07:48;21.90;85.30
25468;DHT22;13384;24.794;110.498;2022-10-19T18:10:20;21.90;85.40
25468;DHT22;13384;24.794;110.498;2022-10-19T18:12:51;21.90;85.40
25468;DHT22;13384;24.794;110.498;2022-10-19T18:15:22;21.90;85.50
25468;DHT22;13384;24.794;110.498;2022-10-19T18:17:53;21.90;85.40
25468;DHT22;13384;24.794;110.498;2022-10-19T18:20:25;21.90;85.50
25468;DHT22;13384;24.794;110.498;2022-10-19T18:22:56;21.90;85.40
25468;DHT22;13384;24.794;110.498;2022-10-19T18:25:27;21.90;85.40
25468;DHT22;13384;24.794;110.498;2022-10-19T18:28:10;21.90;85.50
25468;DHT22;13384;24.794;110.498;2022-10-19T18:30:42;21.90;85.20
25468;DHT22;13384;24.794;110.498;2022-10-19T18:33:13;21.90;85.60
25468;DHT22;13384;24.794;110.498;2022-10-19T18:35:44;21.90;85.60
25468;DHT22;13384;24.794;110.498;2022-10-19T18:38:15;21.90;85.60
25468;DHT22;13384;24.794;110.498;2022-10-19T18:40:46;21.90;85.60
25468;DHT22;13384;24.794;110.498;2022-10-19T18:43:39;21.90;85.70
25468;DHT22;13384;24.794;110.498;2022-10-19T18:46:11;21.90;85.70